Ignacio, CO

4:36 PM MDT on July 04, 2015 (GMT -0600)
Durango-La Plata County | | Change Station
CLOSE
Current Station
Airport
Location: Durango,
Elevation: 6683 ft
Nearby Weather Stations

Elev 6683 ft 37.14 °N, 107.76 °W | Updated 10 minutes ago

Clear
Clear
85 °F
Feels Like 85 °F
N
15
Wind Variable Wind from North

Today
High -- | Low -- °F
--% Chance of Precip.
Yesterday
High -- | Low -- °F
Precip. -- in
5:56 AM 8:34 PM
Waning Gibbous, 89% visible
Pressure 30.09 in
Visibility 10.0 miles
Clouds Clear
Dew Point 45 °F
Humidity 25%
Rainfall 0.00 in
Snow Depth Not available.
UV 7 out of 12
Pollen .60 out of 12
Air Quality Not available.
Flu Activity Not available.
SPECI KDRO 042226Z AUTO 36013KT 10SM VCTS CLR 29/07 A3009 RMK AO2 LTG DSNT ALQDS T02940072

More Conditions Fewer Conditions

Pressure 30.09 in
Visibility 10.0 miles
Clouds Clear
Dew Point 45 °F
Humidity 25%
Rainfall 0.00 in
Snow Depth Not available.
UV 7 out of 12
Pollen .60 out of 12
Air Quality Not available.
Flu Activity Not available.
SPECI KDRO 042226Z AUTO 36013KT 10SM VCTS CLR 29/07 A3009 RMK AO2 LTG DSNT ALQDS T02940072

More Conditions Fewer Conditions

10-Day Weather Forecast

×

Almanac

Astronomy

Jul. 04, 2015 Rise Set
Actual Time
Civil Twilight
Nautical Twilight
Astronomical Twilight
Moon
Length of Visible Light
Length of Day
Tomorrow will be .
, % of the Moon is Illuminated

Today's Extremes

State Highs State Lows

Community

WunderPhotos

Upload Photos

1,835,105 photos uploaded!

WunderBlogs® & News

Nearby

Air Quality

  Air Quality AQ Index Pollutant
Not available.

Snow Depth

Station Depth Elevation

Earthquake Activity

City Distance Mag. Time & Date
Minimum magnitude displayed is 2.5.

Coastal Water Temperatures

Place Temperature

Stations

Nearby Weather Stations

Station Location Temp. Windchill Dew Point Humidity Wind Precip. Elev Updated Type